createdAt,value
2019-03-18T00:01:38.981Z,94543.34
2019-03-18T00:04:10.361Z,94556.16
2019-03-18T00:06:40.992Z,94553.18
2019-03-18T00:09:11.514Z,94547.78
2019-03-18T00:11:41.939Z,94548.64
2019-03-18T00:14:12.619Z,94547.43
2019-03-18T00:16:42.950Z,94544.92
2019-03-18T00:19:13.496Z,94552.03
2019-03-18T00:21:44.171Z,94555.83
2019-03-18T00:24:14.516Z,94543.16
2019-03-18T00:26:44.804Z,94550.35
2019-03-18T00:29:15.204Z,94555.05
2019-03-18T00:31:45.531Z,94556.34
2019-03-18T00:34:15.950Z,94549.11
2019-03-18T00:36:46.240Z,94555.34
2019-03-18T00:39:16.569Z,94556.12
2019-03-18T00:41:46.974Z,94557.33
2019-03-18T00:44:17.475Z,94555.17
2019-03-18T00:46:47.884Z,94546.48
2019-03-18T00:49:18.603Z,94555.08
2019-03-18T00:51:49.147Z,94551.05
2019-03-18T00:54:19.488Z,94554.18
2019-03-18T00:56:49.978Z,94547.22
2019-03-18T00:59:20.951Z,94543.64
2019-03-18T01:01:51.310Z,94539.77
2019-03-18T01:04:21.660Z,94533.50
2019-03-18T01:06:51.946Z,94532.86
2019-03-18T01:09:22.885Z,94542.94
2019-03-18T01:11:53.408Z,94534.25
2019-03-18T01:14:23.839Z,94532.92
2019-03-18T01:16:54.490Z,94536.92
2019-03-18T01:19:25.306Z,94531.44
2019-03-18T01:21:55.675Z,94521.87
2019-03-18T01:24:26.397Z,94517.90
2019-03-18T01:26:56.974Z,94520.22
2019-03-18T01:29:27.257Z,94521.11
2019-03-18T01:31:57.743Z,94520.78
2019-03-18T01:34:28.305Z,94521.94
2019-03-18T01:36:58.583Z,94515.77
2019-03-18T01:39:28.860Z,94516.50
2019-03-18T01:41:59.893Z,94518.95
2019-03-18T01:44:30.187Z,94518.05
2019-03-18T01:47:00.485Z,94521.16
2019-03-18T01:49:30.874Z,94518.45
2019-03-18T01:52:01.342Z,94525.52
2019-03-18T01:54:31.675Z,94520.93
2019-03-18T01:57:02.299Z,94518.81
2019-03-18T01:59:32.988Z,94517.12
2019-03-18T02:02:04.397Z,94514.35
2019-03-18T02:04:35.079Z,94512.48
2019-03-18T02:07:05.532Z,94515.20
2019-03-18T02:09:35.903Z,94518.70
2019-03-18T02:12:06.459Z,94515.22
2019-03-18T02:14:36.742Z,94519.24
2019-03-18T02:17:07.455Z,94520.58
2019-03-18T02:19:38.147Z,94521.83
2019-03-18T02:22:08.504Z,94524.19
2019-03-18T02:24:39.114Z,94533.63
2019-03-18T02:27:09.639Z,94534.28
2019-03-18T02:29:39.965Z,94540.61
2019-03-18T02:32:10.501Z,94533.38
2019-03-18T02:34:41.221Z,94543.53
2019-03-18T02:37:11.497Z,94541.70
2019-03-18T02:39:42.011Z,94544.51
2019-03-18T02:42:12.632Z,94543.65
2019-03-18T02:44:43.164Z,94551.22
2019-03-18T02:47:13.820Z,94555.00
2019-03-18T02:49:44.105Z,94550.98
2019-03-18T02:52:14.675Z,94548.08
2019-03-18T02:54:45.364Z,94552.86
2019-03-18T02:57:15.696Z,94550.39
2019-03-18T02:59:46.076Z,94548.72
2019-03-18T03:02:16.885Z,94556.47
2019-03-18T03:04:47.168Z,94554.89
2019-03-18T03:07:17.592Z,94546.40
2019-03-18T03:09:48.227Z,94547.89
2019-03-18T03:12:18.730Z,94551.27
2019-03-18T03:14:49.479Z,94554.59
2019-03-18T03:17:21.903Z,94554.09
2019-03-18T03:19:52.017Z,94551.47
2019-03-18T03:22:22.578Z,94547.67
2019-03-18T03:24:52.876Z,94543.64
2019-03-18T03:27:23.196Z,94547.64
2019-03-18T03:29:53.602Z,94554.36
2019-03-18T03:32:24.317Z,94552.27
2019-03-18T03:34:54.586Z,94556.06
2019-03-18T03:37:25.142Z,94556.85
2019-03-18T03:39:55.503Z,94554.27
2019-03-18T03:42:25.802Z,94562.33
2019-03-18T03:44:56.543Z,94554.70
2019-03-18T03:47:27.326Z,94554.47
2019-03-18T03:49:57.605Z,94553.97
2019-03-18T03:52:28.212Z,94553.27
2019-03-18T03:54:58.982Z,94558.19
2019-03-18T03:57:29.307Z,94559.27
2019-03-18T03:59:59.730Z,94565.80
2019-03-18T04:02:30.750Z,94562.56
2019-03-18T04:05:01.052Z,94568.41
2019-03-18T04:07:31.375Z,94570.77
2019-03-18T04:10:02.006Z,94571.08
2019-03-18T04:12:32.675Z,94572.23
2019-03-18T04:15:03.352Z,94574.89
2019-03-18T04:17:35.000Z,94580.36
2019-03-18T04:20:05.587Z,94576.04
2019-03-18T04:22:36.300Z,94579.59
2019-03-18T04:25:06.868Z,94570.78
2019-03-18T04:27:37.243Z,94583.53
2019-03-18T04:30:08.540Z,94579.02
2019-03-18T04:32:39.195Z,94582.94
2019-03-18T04:35:09.600Z,94582.61
2019-03-18T04:37:40.540Z,94581.23
2019-03-18T04:40:11.811Z,94582.33
2019-03-18T04:42:42.191Z,94583.39
2019-03-18T04:45:12.781Z,94582.00
2019-03-18T04:47:43.120Z,94588.06
2019-03-18T04:50:14.149Z,94589.95
2019-03-18T04:52:45.410Z,94588.45
2019-03-18T04:55:15.777Z,94591.55
2019-03-18T04:57:46.499Z,94591.63
2019-03-18T05:00:17.032Z,94598.30
2019-03-18T05:02:47.365Z,94594.48
2019-03-18T05:05:18.156Z,94594.25
2019-03-18T05:07:48.801Z,94597.64
2019-03-18T05:10:19.083Z,94602.11
2019-03-18T05:12:49.660Z,94605.07
2019-03-18T05:15:20.267Z,94607.59
2019-03-18T05:17:50.613Z,94612.78
2019-03-18T05:20:21.068Z,94617.16
2019-03-18T05:22:51.619Z,94617.23
2019-03-18T05:25:22.279Z,94615.09
2019-03-18T05:27:52.852Z,94605.33
2019-03-18T05:30:23.131Z,94605.14
2019-03-18T05:32:53.815Z,94604.05
2019-03-18T05:35:24.506Z,94609.74
2019-03-18T05:37:54.872Z,94613.53
2019-03-18T05:40:25.217Z,94620.55
2019-03-18T05:42:55.812Z,94616.68
2019-03-18T05:45:26.159Z,94624.30
2019-03-18T05:47:56.728Z,94622.70
2019-03-18T05:50:27.257Z,94621.33
2019-03-18T05:52:57.833Z,94622.15
2019-03-18T05:55:28.563Z,94613.27
2019-03-18T05:57:59.003Z,94627.05
2019-03-18T06:00:29.517Z,94612.30
2019-03-18T06:03:00.226Z,94612.99
2019-03-18T06:05:30.672Z,94614.30
2019-03-18T06:08:01.213Z,94611.70
2019-03-18T06:10:31.831Z,94610.14
2019-03-18T06:13:02.160Z,94609.84
2019-03-18T06:15:32.442Z,94616.50
2019-03-18T06:18:02.898Z,94615.77
2019-03-18T06:20:33.392Z,94611.59
2019-03-18T06:23:04.170Z,94612.22
2019-03-18T06:25:34.536Z,94603.64
2019-03-18T06:28:04.867Z,94609.00
2019-03-18T06:30:35.511Z,94607.68
2019-03-18T06:33:05.857Z,94609.75
2019-03-18T06:35:36.203Z,94604.80
2019-03-18T06:38:07.151Z,94604.94
2019-03-18T06:40:37.645Z,94603.33
2019-03-18T06:43:08.019Z,94603.42
2019-03-18T06:45:38.632Z,94601.39
2019-03-18T06:48:09.316Z,94603.22
2019-03-18T06:50:39.607Z,94599.92
2019-03-18T06:53:10.353Z,94605.14
2019-03-18T06:55:40.643Z,94608.38
2019-03-18T06:58:11.156Z,94609.12
2019-03-18T07:00:41.673Z,94607.09
2019-03-18T07:03:12.008Z,94606.36
2019-03-18T07:05:42.488Z,94607.73
2019-03-18T07:08:13.205Z,94602.38
2019-03-18T07:10:43.600Z,94599.55
2019-03-18T07:13:14.421Z,94600.77
2019-03-18T07:15:45.187Z,94599.34
2019-03-18T07:18:18.635Z,94602.87
2019-03-18T07:20:47.566Z,94600.25
2019-03-18T07:23:18.248Z,94602.98
2019-03-18T07:25:48.547Z,94597.89
2019-03-18T07:28:19.371Z,94599.69
2019-03-18T07:30:49.829Z,94598.92
2019-03-18T07:33:21.677Z,94599.55
2019-03-18T07:35:52.400Z,94598.80
2019-03-18T07:38:22.728Z,94598.39
2019-03-18T07:40:53.366Z,94588.44
2019-03-18T07:43:23.934Z,94596.92
2019-03-18T07:45:54.233Z,94596.44
2019-03-18T07:48:30.767Z,94586.50
2019-03-18T07:50:57.329Z,94582.05
2019-03-18T07:53:27.812Z,94083.30
2019-03-18T07:55:58.098Z,94572.61
2019-03-18T07:58:28.872Z,94573.42
2019-03-18T08:00:59.542Z,94568.36
2019-03-18T08:03:30.238Z,94561.52
2019-03-18T08:06:01.852Z,94564.89
2019-03-18T08:08:32.754Z,94553.23
2019-03-18T08:11:03.040Z,94550.84
2019-03-18T08:13:33.926Z,94546.34
2019-03-18T08:16:04.466Z,94552.11
2019-03-18T08:18:43.297Z,94545.11
2019-03-18T08:21:07.168Z,94545.20
2019-03-18T08:23:37.856Z,94546.02
2019-03-18T08:26:09.238Z,94546.41
2019-03-18T08:28:39.587Z,94551.80
2019-03-18T08:31:10.055Z,94551.68
2019-03-18T08:33:40.778Z,94546.16
2019-03-18T08:36:11.475Z,94545.31
2019-03-18T08:38:41.879Z,94548.20
2019-03-18T08:41:12.393Z,94541.56
2019-03-18T08:43:43.107Z,94536.25
2019-03-18T08:46:13.411Z,94540.31
2019-03-18T08:48:55.322Z,94539.25
2019-03-18T08:51:16.182Z,94528.21
2019-03-18T08:53:47.103Z,94530.97
2019-03-18T08:56:17.698Z,94529.13
2019-03-18T08:58:48.574Z,94522.26
2019-03-18T09:01:18.942Z,94525.89
2019-03-18T09:03:49.851Z,94521.05
2019-03-18T09:06:21.229Z,94510.67
2019-03-18T09:08:51.769Z,94510.67
2019-03-18T09:11:22.579Z,94505.73
2019-03-18T09:13:53.126Z,94500.67
2019-03-18T09:16:23.587Z,94500.67
2019-03-18T09:18:54.202Z,94500.98
2019-03-18T09:21:24.677Z,94508.58
2019-03-18T09:23:55.236Z,94505.34
2019-03-18T09:26:25.861Z,94501.68
2019-03-18T09:28:56.433Z,94495.66
2019-03-18T09:31:26.853Z,94495.11
2019-03-18T09:33:57.294Z,94493.91
2019-03-18T09:36:27.750Z,94487.88
2019-03-18T09:38:58.305Z,94493.81
2019-03-18T09:41:28.815Z,94491.80
2019-03-18T09:44:01.138Z,94492.35
2019-03-18T09:46:31.904Z,94481.48
2019-03-18T09:49:02.669Z,94484.92
2019-03-18T09:51:33.188Z,94482.20
2019-03-18T09:54:03.941Z,94473.62
2019-03-18T09:56:34.553Z,94468.22
2019-03-18T09:59:04.964Z,94469.10
2019-03-18T10:01:35.372Z,94473.53
2019-03-18T10:04:05.866Z,94463.00
2019-03-18T10:06:36.201Z,94459.59
2019-03-18T10:09:08.662Z,94452.11
2019-03-18T10:11:39.116Z,94457.16
2019-03-18T10:14:09.832Z,94452.70
2019-03-18T10:16:40.588Z,94442.71
2019-03-18T10:19:10.885Z,94448.22
2019-03-18T10:21:41.461Z,94441.55
2019-03-18T10:24:12.148Z,94438.38
2019-03-18T10:26:42.881Z,94436.66
2019-03-18T10:29:13.189Z,94438.49
2019-03-18T10:31:43.935Z,94438.97
2019-03-18T10:34:14.262Z,94439.17
2019-03-18T10:36:44.976Z,94431.38
2019-03-18T10:39:15.371Z,94435.41
2019-03-18T10:41:45.804Z,94430.99
2019-03-18T10:44:16.179Z,94424.50
2019-03-18T10:46:46.589Z,94425.59
2019-03-18T10:49:17.007Z,94414.49
2019-03-18T10:51:48.389Z,94411.09
2019-03-18T10:54:30.467Z,94409.51
2019-03-18T10:56:50.945Z,94395.81
2019-03-18T10:59:21.768Z,94401.59
2019-03-18T11:01:52.537Z,94393.69
2019-03-18T11:04:22.824Z,94385.83
2019-03-18T11:06:53.543Z,94383.70
2019-03-18T11:09:24.234Z,94381.67
2019-03-18T11:11:54.574Z,94376.30
2019-03-18T11:14:25.114Z,94380.68
2019-03-18T11:16:55.417Z,94362.92
2019-03-18T11:19:26.079Z,94367.25
2019-03-18T11:21:56.553Z,94363.74
2019-03-18T11:24:27.036Z,94363.47
2019-03-18T11:26:57.769Z,94359.39
2019-03-18T11:29:28.374Z,94356.70
2019-03-18T11:31:58.697Z,94343.56
2019-03-18T11:34:29.452Z,94346.45
2019-03-18T11:37:00.272Z,94350.50
2019-03-18T11:39:30.629Z,94349.11
2019-03-18T11:42:01.266Z,94337.33
2019-03-18T11:44:31.844Z,94339.92
2019-03-18T11:47:02.283Z,94324.58
2019-03-18T11:49:39.630Z,94323.59
2019-03-18T11:52:05.482Z,94323.72
2019-03-18T11:54:36.253Z,94321.06
2019-03-18T11:57:07.244Z,94320.03
2019-03-18T11:59:37.535Z,94312.88
2019-03-18T12:02:08.291Z,94312.55
2019-03-18T12:04:38.999Z,94295.25
2019-03-18T12:07:09.379Z,94298.63
2019-03-18T12:09:39.695Z,94298.62
2019-03-18T12:12:13.224Z,94298.98
2019-03-18T12:14:42.683Z,94298.77
2019-03-18T12:17:12.988Z,94287.22
2019-03-18T12:19:43.375Z,94285.77
2019-03-18T12:22:14.092Z,94277.70
2019-03-18T12:24:44.385Z,94281.91
2019-03-18T12:27:14.971Z,94281.91
2019-03-18T12:29:45.611Z,94275.30
2019-03-18T12:32:15.913Z,94268.70
2019-03-18T12:34:46.598Z,94272.56
2019-03-18T12:37:17.295Z,94255.45
2019-03-18T12:39:47.794Z,94252.78
2019-03-18T12:42:19.442Z,94251.88
2019-03-18T12:44:50.162Z,94247.85
2019-03-18T12:47:20.494Z,94249.27
2019-03-18T12:49:50.947Z,94245.16
2019-03-18T12:52:21.294Z,94235.86
2019-03-18T12:54:52.127Z,94235.98
2019-03-18T12:57:22.770Z,94231.13
2019-03-18T12:59:53.262Z,94229.57
2019-03-18T13:02:23.717Z,94224.11
2019-03-18T13:04:54.400Z,94219.02
2019-03-18T13:07:24.706Z,94211.88
2019-03-18T13:09:55.034Z,94217.44
2019-03-18T13:12:25.649Z,94218.16
2019-03-18T13:14:56.239Z,94210.43
2019-03-18T13:17:26.660Z,94213.58
2019-03-18T13:19:57.228Z,94221.27
2019-03-18T13:22:27.596Z,94209.11
2019-03-18T13:24:58.377Z,94196.03
2019-03-18T13:27:28.664Z,94208.73
2019-03-18T13:29:59.038Z,94204.70
2019-03-18T13:32:29.726Z,94194.66
2019-03-18T13:35:00.032Z,94197.67
2019-03-18T13:37:30.610Z,94189.30
2019-03-18T13:40:01.265Z,94198.06
2019-03-18T13:42:31.774Z,94206.59
2019-03-18T13:45:02.185Z,94186.39
2019-03-18T13:47:33.073Z,94189.12
2019-03-18T13:50:03.785Z,94197.22
2019-03-18T13:52:34.422Z,94195.47
2019-03-18T13:55:04.781Z,94199.27
2019-03-18T13:57:35.074Z,94192.69
2019-03-18T14:00:07.275Z,94199.86
2019-03-18T14:02:37.830Z,94190.50
2019-03-18T14:05:08.790Z,94189.63
2019-03-18T14:07:39.653Z,94184.92
2019-03-18T14:10:11.921Z,94162.95
2019-03-18T14:12:42.470Z,94164.84
2019-03-18T14:15:14.627Z,94166.10
2019-03-18T14:17:46.462Z,94170.59
2019-03-18T14:20:17.834Z,94172.84
2019-03-18T14:22:48.419Z,94173.23
2019-03-18T14:25:18.727Z,94175.42
2019-03-18T14:27:49.577Z,94169.67
2019-03-18T14:30:20.368Z,94162.50
2019-03-18T14:32:50.772Z,94175.08
2019-03-18T14:35:22.063Z,94175.12
2019-03-18T14:37:53.132Z,94177.42
2019-03-18T14:40:24.762Z,94137.38
2019-03-18T14:42:55.309Z,94152.28
2019-03-18T14:45:26.217Z,94137.53
2019-03-18T14:47:56.632Z,94153.63
2019-03-18T14:50:26.927Z,94136.54
2019-03-18T14:52:57.783Z,94157.98
2019-03-18T14:55:28.088Z,94160.83
2019-03-18T14:57:59.056Z,94171.05
2019-03-18T15:00:29.355Z,94152.53
2019-03-18T15:02:59.831Z,94141.55
2019-03-18T15:05:30.470Z,94141.84
2019-03-18T15:08:00.806Z,94159.31
2019-03-18T15:10:31.096Z,94158.34
2019-03-18T15:13:01.784Z,94175.19
2019-03-18T15:15:32.103Z,94159.45
2019-03-18T15:18:02.426Z,94164.91
2019-03-18T15:20:32.812Z,94171.43
2019-03-18T15:23:03.322Z,94172.84
2019-03-18T15:25:33.867Z,94164.08
2019-03-18T15:28:04.862Z,94172.88
2019-03-18T15:30:35.164Z,94166.50
2019-03-18T15:33:05.996Z,94158.58
2019-03-18T15:35:36.269Z,94154.45
2019-03-18T15:38:06.604Z,94167.22
2019-03-18T15:40:37.316Z,94168.07
2019-03-18T15:43:07.862Z,94156.20
2019-03-18T15:45:38.268Z,94165.02
2019-03-18T15:48:09.045Z,94171.19
2019-03-18T15:50:46.462Z,94182.03
2019-03-18T15:53:20.786Z,94176.48
2019-03-18T15:55:51.626Z,94182.16
2019-03-18T15:58:22.276Z,94180.41
2019-03-18T16:00:52.578Z,94181.85
2019-03-18T16:03:23.060Z,94180.50
2019-03-18T16:05:53.364Z,94180.61
2019-03-18T16:08:24.278Z,94188.73
2019-03-18T16:10:55.074Z,94176.34
2019-03-18T16:13:25.366Z,94194.61
2019-03-18T16:15:55.737Z,94187.13
2019-03-18T16:18:26.118Z,94186.77
2019-03-18T16:20:56.483Z,94205.78
2019-03-18T16:23:27.043Z,94190.45
2019-03-18T16:25:57.729Z,94196.81
2019-03-18T16:28:28.078Z,94197.06
2019-03-18T16:30:58.786Z,94192.31
2019-03-18T16:33:29.525Z,94206.27
2019-03-18T16:35:59.831Z,94208.66
2019-03-18T16:38:30.178Z,94208.66
2019-03-18T16:41:00.660Z,94223.16
2019-03-18T16:43:31.177Z,94228.12
2019-03-18T16:46:01.471Z,94232.19
2019-03-18T16:48:32.209Z,94230.50
2019-03-18T16:51:02.740Z,94227.97
2019-03-18T16:53:33.166Z,94217.67
2019-03-18T16:56:03.933Z,94226.37
2019-03-18T16:58:34.448Z,94227.62
2019-03-18T17:01:04.878Z,94228.45
2019-03-18T17:03:35.399Z,94229.61
2019-03-18T17:06:05.787Z,94212.01
2019-03-18T17:08:36.446Z,94232.27
2019-03-18T17:11:07.124Z,94235.86
2019-03-18T17:13:37.495Z,94245.73
2019-03-18T17:16:08.191Z,94240.16
2019-03-18T17:18:38.578Z,94247.71
2019-03-18T17:21:08.903Z,94238.58
2019-03-18T17:23:39.429Z,94249.98
2019-03-18T17:26:10.101Z,94254.97
2019-03-18T17:28:40.448Z,94249.93
2019-03-18T17:31:11.008Z,94251.78
2019-03-18T17:33:41.650Z,94246.25
2019-03-18T17:36:11.939Z,94252.97
2019-03-18T17:38:42.691Z,94250.03
2019-03-18T17:41:12.971Z,94254.00
2019-03-18T17:43:43.645Z,94256.44
2019-03-18T17:46:14.012Z,94256.97
2019-03-18T17:48:44.320Z,94263.65
2019-03-18T17:51:14.610Z,94228.65
2019-03-18T17:53:45.324Z,94262.50
2019-03-18T17:56:15.734Z,94260.27
2019-03-18T17:58:46.095Z,94265.47
2019-03-18T18:01:16.658Z,94277.66
2019-03-18T18:03:47.088Z,94277.22
2019-03-18T18:06:17.480Z,94284.25
2019-03-18T18:08:48.982Z,94288.97
2019-03-18T18:11:19.478Z,94296.68
2019-03-18T18:13:50.188Z,94302.27
2019-03-18T18:16:20.491Z,94308.21
2019-03-18T18:18:50.936Z,94305.22
2019-03-18T18:21:21.620Z,94312.45
2019-03-18T18:23:52.096Z,94319.02
2019-03-18T18:26:22.380Z,94316.27
2019-03-18T18:28:53.204Z,94322.86
2019-03-18T18:31:23.945Z,94323.86
2019-03-18T18:33:54.273Z,94327.02
2019-03-18T18:36:25.432Z,94328.91
2019-03-18T18:38:56.164Z,94321.44
2019-03-18T18:41:26.569Z,94332.62
2019-03-18T18:43:57.102Z,94337.27
2019-03-18T18:46:27.411Z,94330.48
2019-03-18T18:48:58.103Z,94339.95
2019-03-18T18:51:28.802Z,94353.63
2019-03-18T18:53:59.129Z,94342.34
2019-03-18T18:56:29.866Z,94342.34
2019-03-18T18:59:00.343Z,94352.66
2019-03-18T19:01:30.647Z,94354.45
2019-03-18T19:04:01.103Z,94352.85
2019-03-18T19:06:32.602Z,94109.98
2019-03-18T19:09:04.118Z,94364.80
2019-03-18T19:11:34.487Z,94360.18
2019-03-18T19:14:05.330Z,94370.02
2019-03-18T19:16:36.695Z,94371.89
2019-03-18T19:19:07.160Z,94371.42
2019-03-18T19:21:37.503Z,94371.42
2019-03-18T19:24:10.709Z,94377.56
2019-03-18T19:26:40.528Z,94380.78
2019-03-18T19:29:11.235Z,94382.25
2019-03-18T19:31:41.624Z,94378.53
2019-03-18T19:34:12.454Z,94384.03
2019-03-18T19:36:42.818Z,94382.73
2019-03-18T19:39:13.172Z,94388.11
2019-03-18T19:41:43.815Z,94393.29
2019-03-18T19:44:14.254Z,94401.19
2019-03-18T19:46:44.972Z,94405.27
2019-03-18T19:49:15.323Z,94406.93
2019-03-18T19:51:45.640Z,94406.67
2019-03-18T19:54:16.294Z,94397.81
2019-03-18T19:56:46.631Z,94404.30
2019-03-18T19:59:16.967Z,94406.28
2019-03-18T20:01:47.433Z,94413.16
2019-03-18T20:04:18.099Z,94416.70
2019-03-18T20:06:48.391Z,94424.69
2019-03-18T20:09:20.290Z,94429.92
2019-03-18T20:11:50.990Z,94436.80
2019-03-18T20:14:21.319Z,94434.50
2019-03-18T20:16:51.759Z,94438.06
2019-03-18T20:19:22.042Z,94428.98
2019-03-18T20:21:52.640Z,94431.22
2019-03-18T20:24:23.185Z,94434.38
2019-03-18T20:26:53.653Z,94428.85
2019-03-18T20:29:24.387Z,94427.27
2019-03-18T20:31:55.160Z,94430.45
2019-03-18T20:34:25.526Z,94167.48
2019-03-18T20:36:56.138Z,94435.23
2019-03-18T20:39:26.722Z,94443.87
2019-03-18T20:41:57.188Z,94448.38
2019-03-18T20:44:27.704Z,94447.94
2019-03-18T20:46:58.154Z,94453.72
2019-03-18T20:49:28.516Z,94456.34
2019-03-18T20:51:58.952Z,94457.50
2019-03-18T20:54:29.710Z,94462.34
2019-03-18T20:57:00.181Z,94455.00
2019-03-18T20:59:30.548Z,94474.18
2019-03-18T21:02:02.257Z,94473.89
2019-03-18T21:04:32.931Z,94467.33
2019-03-18T21:07:03.309Z,94471.26
2019-03-18T21:09:33.996Z,94475.22
2019-03-18T21:12:04.764Z,94484.17
2019-03-18T21:14:35.137Z,94481.80
2019-03-18T21:17:05.514Z,94482.35
2019-03-18T21:19:36.051Z,94483.15
2019-03-18T21:22:06.404Z,94478.67
2019-03-18T21:24:37.051Z,94475.75
2019-03-18T21:27:07.448Z,94468.64
2019-03-18T21:29:38.339Z,94473.39
2019-03-18T21:32:09.063Z,94471.02
2019-03-18T21:34:39.680Z,94473.64
2019-03-18T21:37:10.231Z,94474.72
2019-03-18T21:39:40.960Z,94478.14
2019-03-18T21:42:11.340Z,94476.86
2019-03-18T21:44:41.877Z,94475.30
2019-03-18T21:47:12.246Z,94478.69
2019-03-18T21:49:42.553Z,94486.05
2019-03-18T21:52:13.102Z,94476.08
2019-03-18T21:54:43.634Z,94484.70
2019-03-18T21:57:14.301Z,94469.25
2019-03-18T21:59:45.007Z,94473.96
2019-03-18T22:02:15.303Z,94468.98
2019-03-18T22:04:45.848Z,94476.27
2019-03-18T22:07:16.487Z,94469.69
2019-03-18T22:09:47.002Z,94468.59
2019-03-18T22:12:17.307Z,94464.94
2019-03-18T22:14:48.016Z,94467.56
2019-03-18T22:17:18.299Z,94474.35
2019-03-18T22:19:48.625Z,94486.94
2019-03-18T22:22:19.257Z,94507.64
2019-03-18T22:24:50.182Z,94487.16
2019-03-18T22:27:21.032Z,94496.38
2019-03-18T22:29:51.397Z,94472.75
2019-03-18T22:32:21.689Z,94488.23
2019-03-18T22:34:52.465Z,94486.13
2019-03-18T22:37:22.828Z,94466.91
2019-03-18T22:39:53.171Z,94485.87
2019-03-18T22:42:23.833Z,94492.22
2019-03-18T22:44:54.182Z,94492.36
2019-03-18T22:47:24.463Z,94497.36
2019-03-18T22:49:54.877Z,94493.91
2019-03-18T22:52:25.501Z,94508.61
2019-03-18T22:54:56.374Z,94511.78
2019-03-18T22:57:27.091Z,94515.41
2019-03-18T22:59:58.544Z,94516.27
2019-03-18T23:02:29.275Z,94526.21
2019-03-18T23:04:59.947Z,94523.32
2019-03-18T23:07:30.242Z,94524.63
2019-03-18T23:10:00.912Z,94535.98
2019-03-18T23:12:31.698Z,94537.84
2019-03-18T23:15:03.702Z,94532.88
2019-03-18T23:17:34.101Z,94537.33
2019-03-18T23:20:04.969Z,94534.21
2019-03-18T23:22:35.341Z,94536.37
2019-03-18T23:25:07.883Z,94531.86
2019-03-18T23:27:39.801Z,94535.59
2019-03-18T23:30:10.425Z,94541.13
2019-03-18T23:32:41.077Z,94546.11
2019-03-18T23:35:11.473Z,94548.71
2019-03-18T23:37:42.169Z,94550.03
2019-03-18T23:40:12.967Z,94552.14
2019-03-18T23:42:43.365Z,94556.63
2019-03-18T23:45:14.133Z,94558.19
2019-03-18T23:47:44.546Z,94556.07
2019-03-18T23:50:14.857Z,94557.92
2019-03-18T23:52:45.472Z,94559.99
2019-03-18T23:55:19.286Z,94567.61
2019-03-18T23:57:48.188Z,94556.33
